createdAt,value
2022-12-08T00:00:38.014Z,17.80
2022-12-08T00:03:41.420Z,15.43
2022-12-08T00:07:02.794Z,16.20
2022-12-08T00:10:25.228Z,15.93
2022-12-08T00:13:29.506Z,14.10
2022-12-08T00:16:33.767Z,17.50
2022-12-08T00:19:37.307Z,15.37
2022-12-08T00:22:40.197Z,16.57
2022-12-08T00:25:43.333Z,17.47
2022-12-08T00:28:46.228Z,15.97
2022-12-08T00:31:50.524Z,13.80
2022-12-08T00:34:53.500Z,13.93
2022-12-08T00:38:00.787Z,14.30
2022-12-08T00:41:04.294Z,16.10
2022-12-08T00:44:07.701Z,15.03
2022-12-08T00:47:12.768Z,15.07
2022-12-08T00:50:15.757Z,15.40
2022-12-08T00:53:18.656Z,14.20
2022-12-08T00:56:21.534Z,16.73
2022-12-08T00:59:24.432Z,15.83
2022-12-08T01:02:28.705Z,14.00
2022-12-08T01:05:31.591Z,15.73
2022-12-08T01:08:34.812Z,15.00
2022-12-08T01:11:38.100Z,14.40
2022-12-08T01:14:40.955Z,16.07
2022-12-08T01:17:45.176Z,14.23
2022-12-08T01:20:48.101Z,15.07
2022-12-08T01:23:51.003Z,14.57
2022-12-08T01:26:53.876Z,14.97
2022-12-08T01:29:56.760Z,14.20
2022-12-08T01:33:01.042Z,14.73
2022-12-08T01:36:05.406Z,14.20
2022-12-08T01:39:11.368Z,14.57
2022-12-08T01:42:20.962Z,13.87
2022-12-08T01:45:27.209Z,12.20
2022-12-08T01:48:31.464Z,13.07
2022-12-08T01:51:39.398Z,14.60
2022-12-08T01:54:46.780Z,15.17
2022-12-08T01:57:52.068Z,12.77
2022-12-08T02:00:55.275Z,14.90
2022-12-08T02:04:01.947Z,13.70
2022-12-08T02:07:08.202Z,13.60
2022-12-08T02:10:15.131Z,14.03
2022-12-08T02:13:19.855Z,12.97
2022-12-08T02:16:35.687Z,12.97
2022-12-08T02:20:13.189Z,14.43
2022-12-08T02:23:27.962Z,13.47
2022-12-08T02:27:06.850Z,14.47
2022-12-08T02:30:23.129Z,14.73
2022-12-08T02:33:58.797Z,15.30
2022-12-08T02:37:10.441Z,13.80
2022-12-08T02:40:22.288Z,14.67
2022-12-08T02:43:33.313Z,14.33
2022-12-08T02:46:43.520Z,15.23
2022-12-08T02:49:46.713Z,14.57
2022-12-08T02:52:51.007Z,14.57
2022-12-08T02:56:00.955Z,17.00
2022-12-08T02:59:18.356Z,14.77
2022-12-08T03:02:36.812Z,19.43
2022-12-08T03:05:56.839Z,15.97
2022-12-08T03:09:04.802Z,13.70
2022-12-08T03:12:15.187Z,13.07
2022-12-08T03:15:20.870Z,13.47
2022-12-08T03:18:29.624Z,14.53
2022-12-08T03:21:35.134Z,12.87
2022-12-08T03:24:42.703Z,13.80
2022-12-08T03:27:45.895Z,13.47
2022-12-08T03:30:51.470Z,14.70
2022-12-08T03:33:57.485Z,14.57
2022-12-08T03:37:02.520Z,12.80
2022-12-08T03:40:10.208Z,13.60
2022-12-08T03:43:13.112Z,13.50
2022-12-08T03:46:16.488Z,13.50
2022-12-08T03:49:19.413Z,13.50
2022-12-08T03:52:22.344Z,13.43
2022-12-08T03:55:26.573Z,12.93
2022-12-08T03:58:34.312Z,13.57
2022-12-08T04:01:40.172Z,13.33
2022-12-08T04:04:43.075Z,14.67
2022-12-08T04:07:45.996Z,12.33
2022-12-08T04:10:50.254Z,13.03
2022-12-08T04:13:53.128Z,13.57
2022-12-08T04:16:56.287Z,13.30
2022-12-08T04:19:59.167Z,14.37
2022-12-08T04:23:02.080Z,14.47
2022-12-08T04:26:07.641Z,14.30
2022-12-08T04:29:10.540Z,12.83
2022-12-08T04:32:13.444Z,14.90
2022-12-08T04:35:16.360Z,13.17
2022-12-08T04:38:19.398Z,12.87
2022-12-08T04:41:23.647Z,14.70
2022-12-08T04:44:26.543Z,13.43
2022-12-08T04:47:29.460Z,13.20
2022-12-08T04:50:32.347Z,13.03
2022-12-08T04:53:35.287Z,14.07
2022-12-08T04:56:39.506Z,18.20
2022-12-08T04:59:42.437Z,16.00
2022-12-08T05:02:45.393Z,17.67
2022-12-08T05:05:48.608Z,14.20
2022-12-08T05:08:51.551Z,15.83
2022-12-08T05:11:55.845Z,16.50
2022-12-08T05:14:58.738Z,14.07
2022-12-08T05:18:01.610Z,14.67
2022-12-08T05:21:05.019Z,13.57
2022-12-08T05:24:08.192Z,13.97
2022-12-08T05:27:12.444Z,13.23
2022-12-08T05:30:15.613Z,13.93
2022-12-08T05:33:18.632Z,14.63
2022-12-08T05:36:21.808Z,14.50
2022-12-08T05:39:24.855Z,14.60
2022-12-08T05:42:29.240Z,15.53
2022-12-08T05:45:32.341Z,13.30
2022-12-08T05:48:35.624Z,13.90
2022-12-08T05:51:38.497Z,13.67
2022-12-08T05:54:41.365Z,14.97
2022-12-08T05:57:45.613Z,15.67
2022-12-08T06:00:49.256Z,14.50
2022-12-08T06:03:52.629Z,15.63
2022-12-08T06:06:55.699Z,16.50
2022-12-08T06:09:58.600Z,15.53
2022-12-08T06:13:02.823Z,16.63
2022-12-08T06:16:06.790Z,16.80
2022-12-08T06:19:09.773Z,14.43
2022-12-08T06:22:12.652Z,15.20
2022-12-08T06:25:15.529Z,15.73
2022-12-08T06:28:19.771Z,16.87
2022-12-08T06:31:24.457Z,17.47
2022-12-08T06:34:27.591Z,15.63
2022-12-08T06:37:30.455Z,15.73
2022-12-08T06:40:33.337Z,15.80
2022-12-08T06:43:37.584Z,17.87
2022-12-08T06:46:40.477Z,15.17
2022-12-08T06:49:43.398Z,16.43
2022-12-08T06:52:55.955Z,16.30
2022-12-08T06:56:04.399Z,27.37
2022-12-08T06:59:08.669Z,20.17
2022-12-08T07:02:12.268Z,17.43
2022-12-08T07:05:15.378Z,15.03
2022-12-08T07:08:18.298Z,15.37
2022-12-08T07:11:22.363Z,15.43
2022-12-08T07:14:27.001Z,16.63
2022-12-08T07:17:29.900Z,21.10
2022-12-08T07:20:32.786Z,18.40
2022-12-08T07:23:36.514Z,18.33
2022-12-08T07:26:39.894Z,18.17
2022-12-08T07:29:44.298Z,17.43
2022-12-08T07:32:47.473Z,16.87
2022-12-08T07:35:55.875Z,19.10
2022-12-08T07:38:58.756Z,17.00
2022-12-08T07:42:01.642Z,18.43
2022-12-08T07:45:06.698Z,14.67
2022-12-08T07:48:09.652Z,17.03
2022-12-08T07:51:13.844Z,16.70
2022-12-08T07:54:16.799Z,15.77
2022-12-08T07:57:19.685Z,14.90
2022-12-08T08:00:24.248Z,16.33
2022-12-08T08:03:27.210Z,15.80
2022-12-08T08:06:30.109Z,15.30
2022-12-08T08:09:32.999Z,17.70
2022-12-08T08:12:36.190Z,16.63
2022-12-08T08:15:40.995Z,18.40
2022-12-08T08:18:45.110Z,16.77
2022-12-08T08:21:47.988Z,17.03
2022-12-08T08:24:50.958Z,16.10
2022-12-08T08:27:55.212Z,15.83
2022-12-08T08:31:00.246Z,15.23
2022-12-08T08:34:06.118Z,19.10
2022-12-08T08:37:09.262Z,17.47
2022-12-08T08:40:12.783Z,16.83
2022-12-08T08:43:34.348Z,17.30
2022-12-08T08:46:42.215Z,17.67
2022-12-08T08:49:45.188Z,17.37
2022-12-08T08:52:48.087Z,17.20
2022-12-08T08:55:51.266Z,17.00
2022-12-08T08:58:54.985Z,18.03
2022-12-08T09:01:59.645Z,20.37
2022-12-08T09:05:02.664Z,17.77
2022-12-08T09:08:05.918Z,17.90
2022-12-08T09:11:09.366Z,17.20
2022-12-08T09:14:12.840Z,20.07
2022-12-08T09:17:17.213Z,17.97
2022-12-08T09:20:20.248Z,18.33
2022-12-08T09:23:23.339Z,17.80
2022-12-08T09:26:27.461Z,17.63
2022-12-08T09:29:35.594Z,18.37
2022-12-08T09:32:40.536Z,19.90
2022-12-08T09:35:43.452Z,21.10
2022-12-08T09:38:46.624Z,19.77
2022-12-08T09:41:51.758Z,20.07
2022-12-08T09:45:01.407Z,21.87
2022-12-08T09:48:11.380Z,23.13
2022-12-08T09:51:16.468Z,20.20
2022-12-08T09:54:22.640Z,22.90
2022-12-08T09:57:26.772Z,26.10
2022-12-08T10:00:29.980Z,24.73
2022-12-08T10:03:34.459Z,20.27
2022-12-08T10:06:42.389Z,20.97
2022-12-08T10:09:55.832Z,22.43
2022-12-08T10:13:08.197Z,22.33
2022-12-08T10:16:28.033Z,22.97
2022-12-08T10:19:36.122Z,24.80
2022-12-08T10:22:44.529Z,23.37
2022-12-08T10:25:50.082Z,21.33
2022-12-08T10:28:53.218Z,20.40
2022-12-08T10:31:59.832Z,21.90
2022-12-08T10:35:08.090Z,20.00
2022-12-08T10:38:19.598Z,17.30
2022-12-08T10:41:25.635Z,23.93
2022-12-08T10:44:28.709Z,22.57
2022-12-08T10:47:36.397Z,20.63
2022-12-08T10:50:44.520Z,25.63
2022-12-08T10:53:48.004Z,17.43
2022-12-08T10:56:55.633Z,19.90
2022-12-08T10:59:58.788Z,20.43
2022-12-08T11:03:03.813Z,18.50
2022-12-08T11:06:16.475Z,22.23
2022-12-08T11:09:46.686Z,20.43
2022-12-08T11:12:50.482Z,17.33
2022-12-08T11:15:54.723Z,18.93
2022-12-08T11:18:59.247Z,19.60
2022-12-08T11:22:03.886Z,21.53
2022-12-08T11:25:12.353Z,21.20
2022-12-08T11:28:15.405Z,18.70
2022-12-08T11:31:32.110Z,18.30
2022-12-08T11:34:41.534Z,20.80
2022-12-08T11:37:45.965Z,19.80
2022-12-08T11:40:51.934Z,17.67
2022-12-08T11:44:02.579Z,23.97
2022-12-08T11:47:11.938Z,22.43
2022-12-08T11:50:21.913Z,23.77
2022-12-08T11:53:32.354Z,18.37
2022-12-08T11:56:38.306Z,18.20
2022-12-08T11:59:46.041Z,20.10
2022-12-08T12:02:56.380Z,18.33
2022-12-08T12:06:46.419Z,25.17
2022-12-08T12:10:09.094Z,20.60
2022-12-08T12:13:31.388Z,18.60
2022-12-08T12:16:49.403Z,24.63
2022-12-08T12:19:53.802Z,18.70
2022-12-08T12:23:01.907Z,17.33
2022-12-08T12:26:08.637Z,18.30
2022-12-08T12:29:18.153Z,16.67
2022-12-08T12:32:21.788Z,17.77
2022-12-08T12:35:33.876Z,23.57
2022-12-08T12:38:56.623Z,18.73
2022-12-08T12:42:02.644Z,19.83
2022-12-08T12:45:25.319Z,18.80
2022-12-08T12:48:28.390Z,27.73
2022-12-08T12:51:45.125Z,19.67
2022-12-08T12:55:23.132Z,19.13
2022-12-08T12:58:42.941Z,23.63
2022-12-08T13:01:56.736Z,18.17
2022-12-08T13:05:03.154Z,20.00
2022-12-08T13:08:16.382Z,20.83
2022-12-08T13:11:21.230Z,19.73
2022-12-08T13:14:36.189Z,17.03
2022-12-08T13:17:44.692Z,19.20
2022-12-08T13:20:51.196Z,20.97
2022-12-08T13:24:17.613Z,20.03
2022-12-08T13:27:35.448Z,22.17
2022-12-08T13:30:45.919Z,21.90
2022-12-08T13:33:48.981Z,22.00
2022-12-08T13:37:01.019Z,17.73
2022-12-08T13:40:10.183Z,18.67
2022-12-08T13:43:21.019Z,22.13
2022-12-08T13:57:11.988Z,20.23
2022-12-08T14:00:21.124Z,16.77
2022-12-08T14:03:24.090Z,19.27
2022-12-08T14:06:31.570Z,19.83
2022-12-08T14:09:37.770Z,18.27
2022-12-08T14:12:42.881Z,20.00
2022-12-08T14:15:47.186Z,23.07
2022-12-08T14:18:52.524Z,19.60
2022-12-08T14:21:58.845Z,19.53
2022-12-08T14:25:02.280Z,18.93
2022-12-08T14:28:06.355Z,22.43
2022-12-08T14:31:14.060Z,16.90
2022-12-08T14:34:17.241Z,19.90
2022-12-08T14:37:20.238Z,21.03
2022-12-08T14:40:25.333Z,19.17
2022-12-08T14:43:29.703Z,18.43
2022-12-08T14:46:34.123Z,17.33
2022-12-08T14:49:39.606Z,18.37
2022-12-08T14:52:44.663Z,20.70
2022-12-08T14:55:49.320Z,17.87
2022-12-08T14:59:04.054Z,22.03
2022-12-08T15:02:29.108Z,16.67
2022-12-08T15:05:33.471Z,19.03
2022-12-08T15:08:52.356Z,17.93
2022-12-08T15:12:02.314Z,17.90
2022-12-08T15:15:17.840Z,18.10
2022-12-08T15:18:29.779Z,18.50
2022-12-08T15:21:37.922Z,17.60
2022-12-08T15:24:40.924Z,19.57
2022-12-08T15:27:50.261Z,19.90
2022-12-08T15:30:54.770Z,19.90
2022-12-08T15:33:59.092Z,17.97
2022-12-08T15:37:02.024Z,21.53
2022-12-08T15:40:06.023Z,21.30
2022-12-08T15:43:11.275Z,18.13
2022-12-08T15:46:14.269Z,19.53
2022-12-08T15:49:21.396Z,18.87
2022-12-08T15:52:26.150Z,19.87
2022-12-08T15:55:31.121Z,19.53
2022-12-08T15:58:55.152Z,20.37
2022-12-08T16:01:59.573Z,17.43
2022-12-08T16:05:41.528Z,17.87
2022-12-08T16:12:09.377Z,18.37
2022-12-08T16:18:40.031Z,16.77
2022-12-08T16:25:18.894Z,17.47
2022-12-08T16:31:45.571Z,19.10
2022-12-08T16:34:49.458Z,19.10
2022-12-08T16:37:54.346Z,20.67
2022-12-08T16:41:14.827Z,20.03
2022-12-08T16:44:17.786Z,17.53
2022-12-08T16:47:20.765Z,20.63
2022-12-08T16:50:25.383Z,22.90
2022-12-08T16:53:29.883Z,25.03
2022-12-08T16:56:33.761Z,23.67
2022-12-08T16:59:38.468Z,27.40
2022-12-08T17:02:41.681Z,23.37
2022-12-08T17:05:44.578Z,26.07
2022-12-08T17:08:48.877Z,28.90
2022-12-08T17:11:51.917Z,29.97
2022-12-08T17:14:54.792Z,31.77
2022-12-08T17:17:57.700Z,34.57
2022-12-08T17:21:00.570Z,31.23
2022-12-08T17:24:05.522Z,38.13
2022-12-08T17:27:08.406Z,32.67
2022-12-08T17:30:15.624Z,31.57
2022-12-08T17:33:22.255Z,31.53
2022-12-08T17:36:29.779Z,32.33
2022-12-08T17:39:34.849Z,30.40
2022-12-08T17:42:38.656Z,30.90
2022-12-08T17:45:42.973Z,29.07
2022-12-08T17:48:45.964Z,32.03
2022-12-08T17:51:49.756Z,35.60
2022-12-08T17:54:55.247Z,33.83
2022-12-08T17:57:58.304Z,34.33
2022-12-08T18:01:01.401Z,30.80
2022-12-08T18:04:05.627Z,28.33
2022-12-08T18:07:08.508Z,31.47
2022-12-08T18:10:12.916Z,29.73
2022-12-08T18:13:15.864Z,32.13
2022-12-08T18:16:20.235Z,33.83
2022-12-08T18:19:23.359Z,27.93
2022-12-08T18:22:26.784Z,29.27
2022-12-08T18:25:31.030Z,35.17
2022-12-08T18:28:34.019Z,34.33
2022-12-08T18:31:36.919Z,36.80
2022-12-08T18:34:39.871Z,32.43
2022-12-08T18:37:43.975Z,29.77
2022-12-08T18:40:48.216Z,25.80
2022-12-08T18:43:51.223Z,24.97
2022-12-08T18:46:54.114Z,24.83
2022-12-08T18:49:57.247Z,35.80
2022-12-08T18:53:00.119Z,28.33
2022-12-08T18:56:04.498Z,27.00
2022-12-08T18:59:09.070Z,26.80
2022-12-08T19:02:12.267Z,24.10
2022-12-08T19:05:15.772Z,24.87
2022-12-08T19:08:19.192Z,25.77
2022-12-08T19:11:25.823Z,25.10
2022-12-08T19:14:30.335Z,25.00
2022-12-08T19:17:33.290Z,34.60
2022-12-08T19:20:36.238Z,32.70
2022-12-08T19:23:39.376Z,35.10
2022-12-08T19:26:44.169Z,33.80
2022-12-08T19:29:47.270Z,36.43
2022-12-08T19:32:51.441Z,33.83
2022-12-08T19:35:54.752Z,32.37
2022-12-08T19:39:15.479Z,32.90
2022-12-08T19:42:38.807Z,29.87
2022-12-08T19:45:41.825Z,31.50
2022-12-08T19:48:44.815Z,27.30
2022-12-08T19:51:47.736Z,27.30
2022-12-08T19:54:50.647Z,27.90
2022-12-08T19:57:56.649Z,30.60
2022-12-08T20:00:59.599Z,30.73
2022-12-08T20:04:02.499Z,31.93
2022-12-08T20:07:05.408Z,35.40
2022-12-08T20:10:15.463Z,36.07
2022-12-08T20:13:37.498Z,37.17
2022-12-08T20:16:41.819Z,38.77
2022-12-08T20:19:45.028Z,36.87
2022-12-08T20:22:49.822Z,37.77
2022-12-08T20:25:53.005Z,44.80
2022-12-08T20:28:57.540Z,44.27
2022-12-08T20:32:00.594Z,42.80
2022-12-08T20:35:04.083Z,36.73
2022-12-08T20:38:07.466Z,43.20
2022-12-08T20:41:11.361Z,41.30
2022-12-08T20:44:15.705Z,44.27
2022-12-08T20:47:19.148Z,39.37
2022-12-08T20:50:22.293Z,40.93
2022-12-08T20:53:25.378Z,42.47
2022-12-08T20:56:28.630Z,39.93
2022-12-08T20:59:33.178Z,36.13
2022-12-08T21:02:37.616Z,46.83
2022-12-08T21:05:47.756Z,39.30
2022-12-08T21:08:51.434Z,36.27
2022-12-08T21:11:54.880Z,42.67
2022-12-08T21:14:59.626Z,39.13
2022-12-08T21:18:02.666Z,39.53
2022-12-08T21:21:08.581Z,40.87
2022-12-08T21:24:11.527Z,40.53
2022-12-08T21:27:14.659Z,42.80
2022-12-08T21:30:19.346Z,40.73
2022-12-08T21:33:22.454Z,40.60
2022-12-08T21:36:25.710Z,43.40
2022-12-08T21:39:29.184Z,52.00
2022-12-08T21:42:47.325Z,44.90
2022-12-08T21:45:51.818Z,45.63
2022-12-08T21:48:54.913Z,44.80
2022-12-08T21:51:58.260Z,39.23
2022-12-08T21:55:01.324Z,40.97
2022-12-08T21:58:04.437Z,44.67
2022-12-08T22:01:10.386Z,39.57
2022-12-08T22:04:16.890Z,48.43
2022-12-08T22:07:20.302Z,41.67
2022-12-08T22:10:23.730Z,45.93
2022-12-08T22:13:26.902Z,41.43
2022-12-08T22:16:31.487Z,44.00
2022-12-08T22:19:34.828Z,41.10
2022-12-08T22:22:38.467Z,45.07
2022-12-08T22:25:41.751Z,39.40
2022-12-08T22:28:45.412Z,42.13
2022-12-08T22:31:49.876Z,41.27
2022-12-08T22:34:53.158Z,42.83
2022-12-08T22:37:56.209Z,38.60
2022-12-08T22:40:59.418Z,40.03
2022-12-08T22:44:02.758Z,41.30
2022-12-08T22:47:07.654Z,40.40
2022-12-08T22:50:11.641Z,38.40
2022-12-08T22:53:15.047Z,41.97
2022-12-08T22:56:19.264Z,40.07
2022-12-08T22:59:22.457Z,39.37
2022-12-08T23:02:26.727Z,38.87
2022-12-08T23:05:33.398Z,42.80
2022-12-08T23:08:36.719Z,44.43
2022-12-08T23:11:39.802Z,48.97
2022-12-08T23:14:42.852Z,42.17
2022-12-08T23:17:47.440Z,49.37
2022-12-08T23:20:50.420Z,48.90
2022-12-08T23:23:53.540Z,40.23
2022-12-08T23:26:56.518Z,48.63
2022-12-08T23:29:59.903Z,48.60
2022-12-08T23:33:04.316Z,50.60
2022-12-08T23:36:07.792Z,38.33
2022-12-08T23:39:11.890Z,36.83
2022-12-08T23:42:14.858Z,37.13
2022-12-08T23:45:17.775Z,32.13
2022-12-08T23:48:22.081Z,35.20
2022-12-08T23:51:25.137Z,35.17
2022-12-08T23:54:28.197Z,31.40
2022-12-08T23:57:31.210Z,24.37
